createdAt,value
2018-03-30T00:00:45.769Z,45.78
2018-03-30T00:03:13.210Z,42.00
2018-03-30T00:05:40.695Z,39.30
2018-03-30T00:08:08.199Z,36.22
2018-03-30T00:10:41.423Z,37.25
2018-03-30T00:13:08.946Z,35.50
2018-03-30T00:15:36.890Z,33.72
2018-03-30T00:18:04.387Z,35.60
2018-03-30T00:20:31.864Z,36.78
2018-03-30T00:23:00.142Z,32.60
2018-03-30T00:25:28.402Z,28.50
2018-03-30T00:27:55.958Z,34.63
2018-03-30T00:30:23.479Z,44.00
2018-03-30T00:32:50.955Z,43.65
2018-03-30T00:35:18.454Z,40.50
2018-03-30T00:37:46.730Z,41.08
2018-03-30T00:40:14.996Z,37.30
2018-03-30T00:42:42.494Z,32.63
2018-03-30T00:45:09.981Z,38.33
2018-03-30T00:47:37.466Z,37.63
2018-03-30T00:50:04.968Z,36.58
2018-03-30T00:52:32.458Z,33.88
2018-03-30T00:54:59.973Z,36.70
2018-03-30T00:57:27.470Z,35.55
2018-03-30T00:59:54.962Z,33.55
2018-03-30T01:02:23.228Z,30.35
2018-03-30T01:04:50.734Z,34.50
2018-03-30T01:07:18.233Z,36.45
2018-03-30T01:09:45.731Z,36.92
2018-03-30T01:12:13.231Z,40.80
2018-03-30T01:14:40.728Z,34.38
2018-03-30T01:17:08.206Z,38.45
2018-03-30T01:19:35.705Z,30.52
2018-03-30T01:22:03.197Z,31.52
2018-03-30T01:24:30.683Z,38.40
2018-03-30T01:26:59.059Z,38.45
2018-03-30T01:29:26.540Z,31.12
2018-03-30T01:31:54.033Z,30.10
2018-03-30T01:34:21.529Z,34.03
2018-03-30T01:36:49.009Z,34.25
2018-03-30T01:39:16.498Z,33.90
2018-03-30T01:41:43.996Z,33.58
2018-03-30T01:44:12.274Z,33.00
2018-03-30T01:46:39.757Z,33.25
2018-03-30T01:49:07.251Z,32.15
2018-03-30T01:51:34.734Z,31.87
2018-03-30T01:54:02.996Z,27.80
2018-03-30T01:56:30.480Z,28.87
2018-03-30T01:58:58.802Z,28.05
2018-03-30T02:01:26.244Z,26.62
2018-03-30T02:03:54.124Z,25.77
2018-03-30T02:06:21.627Z,29.87
2018-03-30T02:08:49.904Z,29.30
2018-03-30T02:11:18.544Z,29.73
2018-03-30T02:13:46.028Z,26.58
2018-03-30T02:16:13.523Z,27.60
2018-03-30T02:18:41.418Z,25.40
2018-03-30T02:21:08.901Z,26.83
2018-03-30T02:23:36.417Z,25.87
2018-03-30T02:26:03.925Z,26.10
2018-03-30T02:28:31.407Z,27.60
2018-03-30T02:30:59.672Z,26.67
2018-03-30T02:33:27.939Z,27.60
2018-03-30T02:35:55.454Z,24.65
2018-03-30T02:38:22.947Z,26.67
2018-03-30T02:40:50.440Z,25.90
2018-03-30T02:43:18.684Z,20.33
2018-03-30T02:45:47.111Z,25.50
2018-03-30T02:48:14.594Z,24.27
2018-03-30T02:50:42.085Z,28.12
2018-03-30T02:53:09.566Z,28.80
2018-03-30T02:55:37.059Z,30.50
2018-03-30T02:58:04.531Z,25.37
2018-03-30T03:00:32.018Z,21.43
2018-03-30T03:02:59.487Z,19.55
2018-03-30T03:05:27.738Z,20.50
2018-03-30T03:07:55.215Z,20.05
2018-03-30T03:10:23.470Z,22.65
2018-03-30T03:12:50.950Z,28.42
2018-03-30T03:15:19.190Z,25.35
2018-03-30T03:17:46.676Z,22.17
2018-03-30T03:20:14.178Z,25.23
2018-03-30T03:22:41.642Z,24.87
2018-03-30T03:25:09.132Z,21.77
2018-03-30T03:27:36.606Z,27.08
2018-03-30T03:30:04.092Z,18.73
2018-03-30T03:32:31.627Z,19.75
2018-03-30T03:34:59.914Z,19.20
2018-03-30T03:37:28.172Z,20.30
2018-03-30T03:39:56.457Z,18.77
2018-03-30T03:42:24.719Z,23.73
2018-03-30T03:44:52.235Z,23.83
2018-03-30T03:47:19.746Z,20.67
2018-03-30T03:49:48.011Z,25.37
2018-03-30T03:52:15.495Z,20.08
2018-03-30T03:54:43.772Z,20.98
2018-03-30T03:57:12.015Z,20.45
2018-03-30T03:59:39.504Z,26.40
2018-03-30T04:02:07.767Z,20.23
2018-03-30T04:04:36.019Z,19.02
2018-03-30T04:07:03.496Z,20.45
2018-03-30T04:09:31.767Z,22.02
2018-03-30T04:12:00.056Z,22.00
2018-03-30T04:14:28.339Z,22.55
2018-03-30T04:16:55.826Z,22.40
2018-03-30T04:19:23.315Z,20.95
2018-03-30T04:21:50.790Z,23.35
2018-03-30T04:24:18.283Z,20.25
2018-03-30T04:26:45.766Z,22.48
2018-03-30T04:29:13.286Z,20.52
2018-03-30T04:31:41.531Z,22.77
2018-03-30T04:34:09.014Z,19.00
2018-03-30T04:36:37.254Z,19.80
2018-03-30T04:39:05.579Z,19.02
2018-03-30T04:41:33.067Z,19.10
2018-03-30T04:44:00.550Z,18.42
2018-03-30T04:46:28.035Z,20.15
2018-03-30T04:48:56.295Z,19.42
2018-03-30T04:51:23.773Z,18.75
2018-03-30T04:53:52.033Z,20.58
2018-03-30T04:56:20.282Z,20.62
2018-03-30T04:58:47.759Z,18.05
2018-03-30T05:01:15.249Z,18.90
2018-03-30T05:03:42.735Z,17.08
2018-03-30T05:06:10.221Z,18.58
2018-03-30T05:08:37.697Z,19.05
2018-03-30T05:11:05.966Z,20.80
2018-03-30T05:13:33.439Z,18.67
2018-03-30T05:16:01.688Z,19.12
2018-03-30T05:18:29.163Z,19.92
2018-03-30T05:20:57.413Z,20.25
2018-03-30T05:23:24.889Z,21.58
2018-03-30T05:25:52.371Z,26.77
2018-03-30T05:28:19.855Z,24.93
2018-03-30T05:30:47.367Z,26.85
2018-03-30T05:33:15.610Z,25.17
2018-03-30T05:35:43.099Z,23.45
2018-03-30T05:38:11.354Z,23.55
2018-03-30T05:40:38.838Z,21.60
2018-03-30T05:43:07.076Z,22.87
2018-03-30T05:45:34.567Z,22.17
2018-03-30T05:48:02.030Z,23.40
2018-03-30T05:50:30.874Z,21.03
2018-03-30T05:52:58.346Z,18.27
2018-03-30T05:55:25.830Z,20.10
2018-03-30T05:57:54.067Z,20.90
2018-03-30T06:00:21.556Z,19.40
2018-03-30T06:02:49.026Z,18.10
2018-03-30T06:05:17.266Z,18.50
2018-03-30T06:07:44.738Z,19.97
2018-03-30T06:10:12.213Z,21.07
2018-03-30T06:12:40.451Z,31.70
2018-03-30T06:15:08.013Z,25.60
2018-03-30T06:17:35.474Z,29.70
2018-03-30T06:20:03.035Z,27.10
2018-03-30T06:22:30.491Z,20.27
2018-03-30T06:24:57.958Z,19.83
2018-03-30T06:27:25.431Z,18.33
2018-03-30T06:29:52.899Z,19.30
2018-03-30T06:32:21.165Z,21.93
2018-03-30T06:34:48.599Z,23.40
2018-03-30T06:37:16.059Z,22.47
2018-03-30T06:39:43.534Z,20.73
2018-03-30T06:42:10.988Z,22.63
2018-03-30T06:44:38.466Z,22.83
2018-03-30T06:47:06.716Z,23.20
2018-03-30T06:49:34.176Z,23.03
2018-03-30T06:52:02.443Z,24.30
2018-03-30T06:54:29.899Z,23.67
2018-03-30T06:56:57.381Z,22.70
2018-03-30T06:59:25.625Z,20.83
2018-03-30T07:01:53.079Z,20.43
2018-03-30T07:04:20.575Z,20.90
2018-03-30T07:06:48.839Z,21.13
2018-03-30T07:09:17.074Z,19.77
2018-03-30T07:11:44.548Z,21.60
2018-03-30T07:14:12.018Z,20.70
2018-03-30T07:16:39.483Z,20.53
2018-03-30T07:19:06.938Z,18.80
2018-03-30T07:21:34.406Z,20.53
2018-03-30T07:24:02.637Z,19.87
2018-03-30T07:26:30.106Z,20.63
2018-03-30T07:28:57.557Z,18.53
2018-03-30T07:31:25.033Z,18.70
2018-03-30T07:33:52.499Z,18.80
2018-03-30T07:36:19.971Z,17.60
2018-03-30T07:38:48.185Z,18.47
2018-03-30T07:41:15.665Z,18.30
2018-03-30T07:43:43.126Z,18.53
2018-03-30T07:46:10.597Z,17.97
2018-03-30T07:48:38.058Z,17.80
2018-03-30T07:51:05.546Z,18.50
2018-03-30T07:53:33.002Z,18.23
2018-03-30T07:56:00.472Z,18.23
2018-03-30T07:58:27.931Z,17.97
2018-03-30T08:00:55.403Z,18.10
2018-03-30T08:03:22.849Z,16.90
2018-03-30T08:05:50.309Z,18.80
2018-03-30T08:08:17.766Z,16.70
2018-03-30T08:10:45.826Z,15.27
2018-03-30T08:13:13.282Z,18.30
2018-03-30T08:15:40.746Z,18.80
2018-03-30T08:18:08.216Z,18.10
2018-03-30T08:20:35.674Z,17.77
2018-03-30T08:23:03.139Z,18.23
2018-03-30T08:25:30.610Z,21.17
2018-03-30T08:27:58.066Z,20.20
2018-03-30T08:30:25.528Z,17.43
2018-03-30T08:32:52.978Z,15.17
2018-03-30T08:35:20.441Z,15.77
2018-03-30T08:37:47.890Z,15.50
2018-03-30T08:40:16.139Z,14.70
2018-03-30T08:42:43.610Z,15.00
2018-03-30T08:45:11.067Z,14.43
2018-03-30T08:47:38.530Z,15.33
2018-03-30T08:50:05.982Z,14.07
2018-03-30T08:52:33.447Z,14.10
2018-03-30T08:55:00.889Z,14.93
2018-03-30T08:57:28.359Z,13.73
2018-03-30T08:59:55.880Z,13.97
2018-03-30T09:02:23.347Z,15.70
2018-03-30T09:04:50.803Z,13.87
2018-03-30T09:07:18.297Z,12.30
2018-03-30T09:09:45.751Z,12.60
2018-03-30T09:12:13.227Z,13.60
2018-03-30T09:14:40.689Z,14.33
2018-03-30T09:17:08.156Z,13.97
2018-03-30T09:19:35.606Z,14.13
2018-03-30T09:22:03.077Z,12.60
2018-03-30T09:24:31.310Z,12.40
2018-03-30T09:26:58.769Z,11.13
2018-03-30T09:29:26.218Z,13.70
2018-03-30T09:31:53.691Z,12.40
2018-03-30T09:34:21.150Z,10.67
2018-03-30T09:36:48.634Z,11.67
2018-03-30T09:39:16.850Z,11.70
2018-03-30T09:41:44.320Z,10.87
2018-03-30T09:44:11.763Z,11.37
2018-03-30T09:46:39.226Z,11.10
2018-03-30T09:49:06.675Z,10.70
2018-03-30T09:51:34.142Z,11.00
2018-03-30T09:54:01.587Z,10.97
2018-03-30T09:56:29.051Z,11.50
2018-03-30T09:58:56.512Z,10.07
2018-03-30T10:01:23.970Z,10.93
2018-03-30T10:03:51.419Z,11.10
2018-03-30T10:06:18.869Z,11.50
2018-03-30T10:08:46.314Z,10.33
2018-03-30T10:11:13.778Z,15.00
2018-03-30T10:13:41.223Z,10.77
2018-03-30T10:16:08.686Z,10.60
2018-03-30T10:18:36.142Z,11.77
2018-03-30T10:21:03.606Z,11.77
2018-03-30T10:23:31.045Z,11.13
2018-03-30T10:25:58.501Z,9.87
2018-03-30T10:28:26.723Z,11.13
2018-03-30T10:30:54.181Z,12.20
2018-03-30T10:33:21.642Z,10.80
2018-03-30T10:35:49.094Z,10.13
2018-03-30T10:38:16.566Z,10.40
2018-03-30T10:40:44.032Z,11.33
2018-03-30T10:43:11.507Z,11.00
2018-03-30T10:45:38.939Z,12.63
2018-03-30T10:48:06.398Z,11.40
2018-03-30T10:50:33.897Z,12.30
2018-03-30T10:53:01.355Z,12.10
2018-03-30T10:55:28.807Z,14.33
2018-03-30T10:57:56.270Z,11.50
2018-03-30T11:00:23.729Z,11.27
2018-03-30T11:02:51.191Z,12.60
2018-03-30T11:05:18.947Z,12.33
2018-03-30T11:07:46.364Z,12.43
2018-03-30T11:10:13.814Z,12.73
2018-03-30T11:12:41.274Z,12.60
2018-03-30T11:15:08.724Z,13.87
2018-03-30T11:17:36.192Z,12.70
2018-03-30T11:20:03.657Z,13.00
2018-03-30T11:22:31.110Z,13.30
2018-03-30T11:24:58.555Z,12.90
2018-03-30T11:27:26.018Z,14.60
2018-03-30T11:29:53.478Z,13.00
2018-03-30T11:32:20.939Z,13.07
2018-03-30T11:34:48.387Z,13.13
2018-03-30T11:37:15.842Z,13.43
2018-03-30T11:39:43.300Z,15.30
2018-03-30T11:42:10.746Z,14.17
2018-03-30T11:44:38.204Z,15.60
2018-03-30T11:47:05.703Z,13.90
2018-03-30T11:49:33.114Z,15.30
2018-03-30T11:52:00.588Z,13.67
2018-03-30T11:54:28.030Z,13.40
2018-03-30T11:56:55.494Z,13.80
2018-03-30T11:59:22.946Z,13.80
2018-03-30T12:01:50.404Z,14.40
2018-03-30T12:04:17.857Z,14.27
2018-03-30T12:06:45.310Z,14.93
2018-03-30T12:09:12.760Z,14.07
2018-03-30T12:11:40.229Z,12.17
2018-03-30T12:14:07.698Z,14.77
2018-03-30T12:16:35.246Z,13.93
2018-03-30T12:19:02.699Z,12.80
2018-03-30T12:21:30.155Z,14.47
2018-03-30T12:23:57.613Z,13.93
2018-03-30T12:26:25.064Z,13.30
2018-03-30T12:28:52.526Z,14.40
2018-03-30T12:31:19.991Z,13.27
2018-03-30T12:33:47.459Z,13.53
2018-03-30T12:36:14.912Z,14.20
2018-03-30T12:38:42.369Z,12.87
2018-03-30T12:41:09.823Z,12.70
2018-03-30T12:43:37.907Z,12.20
2018-03-30T12:46:05.376Z,13.53
2018-03-30T12:48:32.838Z,13.63
2018-03-30T12:51:01.063Z,12.97
2018-03-30T12:53:28.526Z,14.00
2018-03-30T12:55:55.984Z,15.00
2018-03-30T12:58:23.442Z,12.80
2018-03-30T13:00:50.903Z,12.70
2018-03-30T13:03:18.391Z,13.97
2018-03-30T13:05:45.860Z,13.23
2018-03-30T13:08:14.099Z,14.17
2018-03-30T13:10:41.831Z,12.17
2018-03-30T13:13:09.274Z,14.50
2018-03-30T13:15:36.720Z,16.70
2018-03-30T13:18:04.951Z,13.77
2018-03-30T13:20:32.411Z,16.80
2018-03-30T13:22:59.872Z,15.53
2018-03-30T13:25:27.336Z,15.70
2018-03-30T13:27:54.791Z,14.23
2018-03-30T13:30:22.238Z,14.77
2018-03-30T13:32:49.698Z,14.07
2018-03-30T13:35:17.152Z,16.00
2018-03-30T13:37:44.622Z,14.93
2018-03-30T13:40:12.099Z,15.73
2018-03-30T13:42:40.333Z,19.20
2018-03-30T13:45:07.812Z,16.00
2018-03-30T13:47:35.271Z,16.50
2018-03-30T13:50:02.789Z,29.47
2018-03-30T13:52:37.116Z,25.93
2018-03-30T13:55:08.371Z,17.63
2018-03-30T14:00:53.098Z,16.40
2018-03-30T14:03:37.913Z,16.90
2018-03-30T14:06:09.935Z,17.27
2018-03-30T14:11:36.167Z,18.57
2018-03-30T14:14:04.398Z,16.90
2018-03-30T14:16:50.543Z,19.17
2018-03-30T14:19:19.574Z,25.23
2018-03-30T14:21:54.534Z,15.93
2018-03-30T14:24:22.739Z,16.40
2018-03-30T14:30:08.879Z,18.63
2018-03-30T14:32:56.979Z,16.70
2018-03-30T14:35:37.957Z,21.63
2018-03-30T14:38:09.878Z,20.47
2018-03-30T14:40:40.960Z,16.20
2018-03-30T14:43:16.306Z,16.93
2018-03-30T14:45:48.403Z,15.87
2018-03-30T14:48:20.567Z,19.40
2018-03-30T14:50:55.769Z,17.73
2018-03-30T14:53:23.260Z,16.30
2018-03-30T14:58:59.446Z,16.97
2018-03-30T15:01:28.811Z,15.27
2018-03-30T15:04:03.979Z,16.03
2018-03-30T15:06:36.885Z,17.03
2018-03-30T15:09:10.943Z,16.30
2018-03-30T15:14:49.316Z,16.30
2018-03-30T15:17:27.423Z,15.00
2018-03-30T15:19:57.737Z,15.77
2018-03-30T15:22:34.615Z,14.87
2018-03-30T15:25:05.614Z,16.10
2018-03-30T15:27:33.851Z,16.50
2018-03-30T15:30:02.223Z,16.50
2018-03-30T15:32:42.604Z,18.40
2018-03-30T15:35:12.802Z,17.00
2018-03-30T15:37:40.291Z,15.73
2018-03-30T15:40:24.389Z,15.40
2018-03-30T15:42:52.619Z,15.17
2018-03-30T15:45:47.316Z,19.90
2018-03-30T15:48:14.798Z,27.20
2018-03-30T15:50:42.254Z,21.87
2018-03-30T15:53:17.401Z,17.20
2018-03-30T15:55:46.818Z,16.83
2018-03-30T15:58:15.056Z,30.90
2018-03-30T16:00:43.057Z,17.80
2018-03-30T16:03:11.288Z,15.87
2018-03-30T16:05:38.753Z,18.40
2018-03-30T16:08:06.228Z,17.40
2018-03-30T16:10:38.167Z,16.30
2018-03-30T16:13:05.644Z,18.10
2018-03-30T16:15:33.127Z,16.70
2018-03-30T16:18:00.619Z,17.80
2018-03-30T16:20:27.614Z,17.40
2018-03-30T16:22:54.581Z,16.57
2018-03-30T16:25:22.316Z,18.40
2018-03-30T16:27:49.282Z,17.33
2018-03-30T16:30:17.018Z,17.30
2018-03-30T16:32:43.990Z,16.53
2018-03-30T16:35:11.715Z,17.53
2018-03-30T16:37:38.689Z,17.80
2018-03-30T16:40:05.658Z,18.07
2018-03-30T16:42:33.403Z,19.70
2018-03-30T16:45:00.370Z,18.03
2018-03-30T16:47:28.124Z,17.83
2018-03-30T16:49:55.860Z,17.30
2018-03-30T16:52:22.827Z,20.80
2018-03-30T16:54:50.574Z,18.37
2018-03-30T16:57:17.551Z,20.53
2018-03-30T16:59:45.303Z,18.30
2018-03-30T17:02:13.044Z,22.80
2018-03-30T17:04:40.022Z,18.67
2018-03-30T17:07:07.763Z,18.13
2018-03-30T17:09:34.746Z,17.00
2018-03-30T17:12:01.714Z,18.23
2018-03-30T17:14:28.700Z,21.17
2018-03-30T17:16:55.675Z,16.90
2018-03-30T17:19:22.657Z,18.17
2018-03-30T17:21:49.627Z,17.40
2018-03-30T17:24:16.612Z,17.97
2018-03-30T17:26:43.583Z,17.57
2018-03-30T17:29:10.558Z,16.67
2018-03-30T17:31:37.531Z,18.20
2018-03-30T17:34:04.502Z,17.33
2018-03-30T17:36:31.471Z,16.80
2018-03-30T17:38:58.444Z,19.67
2018-03-30T17:41:25.411Z,18.33
2018-03-30T17:43:52.446Z,17.50
2018-03-30T17:46:19.414Z,18.47
2018-03-30T17:48:47.153Z,18.00
2018-03-30T17:51:14.123Z,18.00
2018-03-30T17:53:41.870Z,19.77
2018-03-30T17:56:08.847Z,19.80
2018-03-30T17:58:35.831Z,21.20
2018-03-30T18:01:02.799Z,23.33
2018-03-30T18:03:29.778Z,21.53
2018-03-30T18:05:56.770Z,20.23
2018-03-30T18:08:23.742Z,22.87
2018-03-30T18:10:50.727Z,21.83
2018-03-30T18:13:17.685Z,20.20
2018-03-30T18:15:44.660Z,24.13
2018-03-30T18:18:11.630Z,20.93
2018-03-30T18:20:39.387Z,20.70
2018-03-30T18:23:06.359Z,21.63
2018-03-30T18:25:33.342Z,19.87
2018-03-30T18:28:00.312Z,21.10
2018-03-30T18:30:27.295Z,20.57
2018-03-30T18:32:55.023Z,24.10
2018-03-30T18:35:22.019Z,21.00
2018-03-30T18:37:48.992Z,20.47
2018-03-30T18:40:15.966Z,20.93
2018-03-30T18:42:42.935Z,23.03
2018-03-30T18:45:10.700Z,22.07
2018-03-30T18:47:38.428Z,22.13
2018-03-30T18:50:05.405Z,20.53
2018-03-30T18:52:33.132Z,22.00
2018-03-30T18:55:00.134Z,20.87
2018-03-30T18:57:27.107Z,20.77
2018-03-30T18:59:54.089Z,20.70
2018-03-30T19:02:21.051Z,20.77
2018-03-30T19:04:48.808Z,20.73
2018-03-30T19:07:15.778Z,20.87
2018-03-30T19:09:42.767Z,19.93
2018-03-30T19:12:09.747Z,19.70
2018-03-30T19:14:36.754Z,21.17
2018-03-30T19:17:03.728Z,21.00
2018-03-30T19:19:30.708Z,20.17
2018-03-30T19:21:57.662Z,20.60
2018-03-30T19:24:24.659Z,19.27
2018-03-30T19:26:51.648Z,20.90
2018-03-30T19:29:18.620Z,20.17
2018-03-30T19:31:45.595Z,19.80
2018-03-30T19:34:12.583Z,19.40
2018-03-30T19:36:39.586Z,20.17
2018-03-30T19:39:06.576Z,19.67
2018-03-30T19:41:33.549Z,21.30
2018-03-30T19:44:00.507Z,20.97
2018-03-30T19:46:27.501Z,21.27
2018-03-30T19:48:55.220Z,20.87
2018-03-30T19:51:22.206Z,20.73
2018-03-30T19:53:49.963Z,22.40
2018-03-30T19:56:17.720Z,20.67
2018-03-30T19:58:44.690Z,21.30
2018-03-30T20:01:11.680Z,21.80
2018-03-30T20:03:38.638Z,21.00
2018-03-30T20:06:06.391Z,21.57
2018-03-30T20:08:33.379Z,21.23
2018-03-30T20:11:01.118Z,20.60
2018-03-30T20:13:28.078Z,21.70
2018-03-30T20:15:55.578Z,22.60
2018-03-30T20:18:24.476Z,21.63
2018-03-30T20:20:51.452Z,20.80
2018-03-30T20:23:18.456Z,21.00
2018-03-30T20:25:49.925Z,23.20
2018-03-30T20:28:16.904Z,20.93
2018-03-30T20:30:43.887Z,23.20
2018-03-30T20:33:10.858Z,21.00
2018-03-30T20:35:38.369Z,21.30
2018-03-30T20:38:06.208Z,22.23
2018-03-30T20:40:33.196Z,20.03
2018-03-30T20:43:01.899Z,21.67
2018-03-30T20:45:28.868Z,21.07
2018-03-30T20:47:55.876Z,20.33
2018-03-30T20:50:26.355Z,21.00
2018-03-30T20:52:53.323Z,20.80
2018-03-30T20:55:26.489Z,20.60
2018-03-30T20:57:53.486Z,21.97
2018-03-30T21:00:20.480Z,22.17
2018-03-30T21:02:47.455Z,20.73
2018-03-30T21:05:17.635Z,20.87
2018-03-30T21:07:44.667Z,21.03
2018-03-30T21:10:11.640Z,22.27
2018-03-30T21:12:39.592Z,20.70
2018-03-30T21:15:06.551Z,21.37
2018-03-30T21:17:37.774Z,20.30
2018-03-30T21:20:04.751Z,20.27
2018-03-30T21:22:31.711Z,20.23
2018-03-30T21:25:03.660Z,19.40
2018-03-30T21:27:30.624Z,19.77
2018-03-30T21:29:57.923Z,20.43
2018-03-30T21:32:25.811Z,20.50
2018-03-30T21:34:58.996Z,20.40
2018-03-30T21:37:33.620Z,21.73
2018-03-30T21:40:00.600Z,21.27
2018-03-30T21:42:27.566Z,20.17
2018-03-30T21:44:54.543Z,21.77
2018-03-30T21:47:21.519Z,19.90
2018-03-30T21:50:12.247Z,20.90
2018-03-30T21:52:39.206Z,18.90
2018-03-30T21:55:06.949Z,20.90
2018-03-30T21:57:33.914Z,21.57
2018-03-30T22:00:07.466Z,21.27
2018-03-30T22:02:34.451Z,21.30
2018-03-30T22:05:02.274Z,21.00
2018-03-30T22:07:30.298Z,21.30
2018-03-30T22:09:58.034Z,19.87
2018-03-30T22:12:46.089Z,20.53
2018-03-30T22:15:13.075Z,20.37
2018-03-30T22:17:40.052Z,21.77
2018-03-30T22:20:07.037Z,20.20
2018-03-30T22:22:35.563Z,20.93
2018-03-30T22:25:03.538Z,20.07
2018-03-30T22:27:32.434Z,20.13
2018-03-30T22:29:59.417Z,19.70
2018-03-30T22:32:27.146Z,19.03
2018-03-30T22:34:55.103Z,20.83
2018-03-30T22:37:22.079Z,20.27
2018-03-30T22:39:49.061Z,20.50
2018-03-30T22:42:16.027Z,19.37
2018-03-30T22:44:42.995Z,20.43
2018-03-30T22:47:09.974Z,23.50
2018-03-30T22:49:37.707Z,20.80
2018-03-30T22:52:11.194Z,19.57
2018-03-30T22:54:50.745Z,20.77
2018-03-30T22:57:17.768Z,21.63
2018-03-30T22:59:44.745Z,19.67
2018-03-30T23:02:13.042Z,19.93
2018-03-30T23:04:40.767Z,21.00
2018-03-30T23:07:09.764Z,20.17
2018-03-30T23:09:36.743Z,19.67
2018-03-30T23:12:05.696Z,19.10
2018-03-30T23:14:32.691Z,19.60
2018-03-30T23:16:59.679Z,18.87
2018-03-30T23:19:30.011Z,19.83
2018-03-30T23:22:03.551Z,19.43
2018-03-30T23:24:32.467Z,17.87
2018-03-30T23:26:59.452Z,18.40
2018-03-30T23:29:26.419Z,17.80
2018-03-30T23:31:53.395Z,19.70
2018-03-30T23:34:21.130Z,19.40
2018-03-30T23:36:48.107Z,17.93
2018-03-30T23:39:22.546Z,18.03
2018-03-30T23:42:10.847Z,18.43
2018-03-30T23:44:42.761Z,18.03
2018-03-30T23:47:10.929Z,17.37
2018-03-30T23:52:41.598Z,18.30
2018-03-30T23:55:08.579Z,17.93
2018-03-30T23:57:35.543Z,18.10
